createdAt,value
2022-08-11T00:02:03.788Z,98715.41
2022-08-11T00:04:39.443Z,98718.59
2022-08-11T00:07:10.848Z,98717.75
2022-08-11T00:09:41.084Z,98709.94
2022-08-11T00:12:17.525Z,98713.50
2022-08-11T00:14:56.371Z,98717.25
2022-08-11T00:17:31.191Z,98716.75
2022-08-11T00:20:15.075Z,98715.88
2022-08-11T00:22:48.821Z,98718.78
2022-08-11T00:25:22.800Z,98714.97
2022-08-11T00:27:52.058Z,98710.25
2022-08-11T00:30:21.319Z,98715.47
2022-08-11T00:32:59.121Z,98715.78
2022-08-11T00:35:54.433Z,98714.38
2022-08-11T00:38:27.700Z,98710.28
2022-08-11T00:41:05.645Z,98711.09
2022-08-11T00:44:02.790Z,98711.69
2022-08-11T00:46:43.987Z,98712.44
2022-08-11T00:49:25.555Z,98709.59
2022-08-11T00:52:11.556Z,98709.22
2022-08-11T00:55:38.096Z,98706.66
2022-08-11T00:59:26.395Z,98702.56
2022-08-11T01:02:17.750Z,98693.56
2022-08-11T01:05:21.790Z,98702.19
2022-08-11T01:08:46.896Z,98691.91
2022-08-11T01:12:06.203Z,98696.34
2022-08-11T01:15:16.303Z,98693.72
2022-08-11T01:18:56.099Z,98695.69
2022-08-11T01:22:21.068Z,98684.16
2022-08-11T01:25:57.301Z,98688.19
2022-08-11T01:29:26.539Z,98690.75
2022-08-11T01:32:48.935Z,98689.25
2022-08-11T01:35:56.651Z,98687.72
2022-08-11T01:39:03.930Z,98690.84
2022-08-11T01:42:19.960Z,98685.47
2022-08-11T01:45:12.685Z,98691.63
2022-08-11T01:47:57.556Z,98684.31
2022-08-11T01:50:47.579Z,98685.28
2022-08-11T01:53:31.996Z,98682.56
2022-08-11T01:56:15.521Z,98682.97
2022-08-11T01:58:51.405Z,98679.13
2022-08-11T02:01:44.463Z,98678.56
2022-08-11T02:04:26.906Z,98681.13
2022-08-11T02:07:11.091Z,98671.63
2022-08-11T02:09:57.847Z,98675.53
2022-08-11T02:12:52.349Z,98681.38
2022-08-11T02:15:34.526Z,98676.47
2022-08-11T02:18:15.020Z,98681.31
2022-08-11T02:21:10.144Z,98682.19
2022-08-11T02:24:06.655Z,98677.38
2022-08-11T02:26:44.703Z,98677.34
2022-08-11T02:29:26.940Z,98682.06
2022-08-11T02:32:34.014Z,98685.25
2022-08-11T02:35:20.123Z,98680.53
2022-08-11T02:38:02.192Z,98690.31
2022-08-11T02:40:50.527Z,98696.53
2022-08-11T02:43:36.184Z,98704.59
2022-08-11T02:46:23.061Z,98700.75
2022-08-11T02:49:18.586Z,98690.72
2022-08-11T02:52:09.759Z,98697.63
2022-08-11T02:54:54.727Z,98696.78
2022-08-11T02:57:34.812Z,98697.53
2022-08-11T03:00:09.753Z,98701.69
2022-08-11T03:03:07.669Z,98699.28
2022-08-11T03:06:09.281Z,98697.66
2022-08-11T03:08:52.621Z,98701.03
2022-08-11T03:11:57.830Z,98701.78
2022-08-11T03:14:53.513Z,98701.53
2022-08-11T03:17:31.707Z,98701.50
2022-08-11T03:20:33.523Z,98710.84
2022-08-11T03:23:19.927Z,98721.66
2022-08-11T03:26:02.808Z,98713.75
2022-08-11T03:28:44.251Z,98717.94
2022-08-11T03:31:28.391Z,98711.88
2022-08-11T03:34:07.910Z,98718.75
2022-08-11T03:37:34.465Z,98726.88
2022-08-11T03:40:41.329Z,98727.78
2022-08-11T03:43:30.322Z,98723.91
2022-08-11T03:46:09.724Z,98734.50
2022-08-11T03:48:56.010Z,98727.34
2022-08-11T03:51:44.775Z,98731.41
2022-08-11T03:54:37.364Z,98722.38
2022-08-11T03:57:49.844Z,98721.94
2022-08-11T04:01:09.161Z,98717.19
2022-08-11T04:04:33.372Z,98722.41
2022-08-11T04:07:59.201Z,98719.59
2022-08-11T04:11:29.084Z,98710.38
2022-08-11T04:14:54.908Z,98714.75
2022-08-11T04:18:02.258Z,98713.50
2022-08-11T04:21:22.046Z,98715.00
2022-08-11T04:24:38.719Z,98728.25
2022-08-11T04:27:56.232Z,98730.22
2022-08-11T04:30:40.456Z,98726.25
2022-08-11T04:33:59.784Z,98727.00
2022-08-11T04:37:16.226Z,98726.66
2022-08-11T04:40:25.457Z,98730.69
2022-08-11T04:44:05.718Z,98740.13
2022-08-11T04:46:58.798Z,98739.88
2022-08-11T04:50:14.198Z,98740.53
2022-08-11T04:53:38.486Z,98748.44
2022-08-11T04:56:33.004Z,98749.16
2022-08-11T05:00:19.842Z,98758.50
2022-08-11T05:03:47.396Z,98754.31
2022-08-11T05:07:03.891Z,98752.63
2022-08-11T05:10:17.414Z,98755.19
2022-08-11T05:12:51.242Z,98750.44
2022-08-11T05:15:52.004Z,98749.00
2022-08-11T05:18:42.623Z,98756.78
2022-08-11T05:21:44.476Z,98757.41
2022-08-11T05:24:39.708Z,98754.66
2022-08-11T05:27:32.817Z,98762.41
2022-08-11T05:30:23.984Z,98759.38
2022-08-11T05:33:17.995Z,98759.66
2022-08-11T05:36:01.857Z,98748.06
2022-08-11T05:38:54.834Z,98745.56
2022-08-11T05:41:47.992Z,98746.25
2022-08-11T05:44:39.919Z,98751.47
2022-08-11T05:47:27.460Z,98756.03
2022-08-11T05:50:15.122Z,98747.44
2022-08-11T05:53:08.901Z,98744.50
2022-08-11T05:56:03.147Z,98748.09
2022-08-11T05:58:42.287Z,98754.88
2022-08-11T06:01:15.324Z,98751.00
2022-08-11T06:04:04.260Z,98751.50
2022-08-11T06:06:34.010Z,98757.09
2022-08-11T06:09:03.843Z,98756.16
2022-08-11T06:11:45.503Z,98755.63
2022-08-11T06:14:16.556Z,98759.03
2022-08-11T06:16:51.135Z,98760.72
2022-08-11T06:19:24.775Z,98759.81
2022-08-11T06:21:54.634Z,98756.16
2022-08-11T06:24:24.494Z,98758.38
2022-08-11T06:27:11.900Z,98761.16
2022-08-11T06:29:54.952Z,98762.97
2022-08-11T06:32:32.915Z,98762.53
2022-08-11T06:35:24.820Z,98762.34
2022-08-11T06:38:07.565Z,98760.22
2022-08-11T06:41:06.096Z,98757.78
2022-08-11T06:43:55.360Z,98758.50
2022-08-11T06:46:30.680Z,98760.28
2022-08-11T06:49:03.911Z,98760.53
2022-08-11T06:51:35.088Z,98767.22
2022-08-11T06:54:06.004Z,98766.13
2022-08-11T06:57:26.445Z,98755.03
2022-08-11T07:00:04.879Z,98761.28
2022-08-11T07:02:39.059Z,98759.03
2022-08-11T07:05:21.797Z,98757.22
2022-08-11T07:08:59.415Z,98749.22
2022-08-11T07:12:18.959Z,98760.47
2022-08-11T07:15:10.469Z,98762.97
2022-08-11T07:17:49.534Z,98754.59
2022-08-11T07:20:38.154Z,98757.34
2022-08-11T07:23:29.085Z,98754.03
2022-08-11T07:26:19.656Z,98760.72
2022-08-11T07:28:58.443Z,98758.38
2022-08-11T07:31:42.092Z,98761.09
2022-08-11T07:34:21.564Z,98762.22
2022-08-11T07:36:57.022Z,98761.25
2022-08-11T07:39:29.455Z,98760.25
2022-08-11T07:42:01.474Z,98761.44
2022-08-11T07:44:34.971Z,98753.66
2022-08-11T07:47:23.014Z,98769.50
2022-08-11T07:50:12.493Z,98757.53
2022-08-11T07:52:43.372Z,98760.31
2022-08-11T07:55:16.934Z,98758.09
2022-08-11T07:58:15.162Z,98765.81
2022-08-11T08:01:10.161Z,98763.03
2022-08-11T08:03:59.410Z,98756.09
2022-08-11T08:06:47.691Z,98750.47
2022-08-11T08:09:38.651Z,98749.94
2022-08-11T08:12:27.394Z,98747.50
2022-08-11T08:15:16.046Z,98739.53
2022-08-11T08:18:08.949Z,98739.88
2022-08-11T08:20:50.697Z,98746.13
2022-08-11T08:23:33.466Z,98748.91
2022-08-11T08:26:29.003Z,98742.22
2022-08-11T08:29:16.466Z,98741.53
2022-08-11T08:31:48.486Z,98742.13
2022-08-11T08:34:19.632Z,98751.66
2022-08-11T08:36:51.835Z,98733.94
2022-08-11T08:39:22.163Z,98732.16
2022-08-11T08:41:56.473Z,98735.31
2022-08-11T08:44:38.216Z,98730.69
2022-08-11T08:47:15.389Z,98732.66
2022-08-11T08:50:09.370Z,98733.53
2022-08-11T08:52:54.793Z,98731.00
2022-08-11T08:55:24.587Z,98730.25
2022-08-11T08:57:58.116Z,98726.72
2022-08-11T09:00:38.780Z,98730.78
2022-08-11T09:03:38.223Z,98732.16
2022-08-11T09:05:58.562Z,98733.78
2022-08-11T09:08:29.531Z,98731.19
2022-08-11T09:11:17.033Z,98730.00
2022-08-11T09:14:06.491Z,98730.28
2022-08-11T09:16:41.302Z,98726.53
2022-08-11T09:19:17.619Z,98721.50
2022-08-11T09:22:12.552Z,98714.97
2022-08-11T09:25:00.036Z,98715.25
2022-08-11T09:27:29.539Z,98718.19
2022-08-11T09:30:00.254Z,98718.38
2022-08-11T09:32:33.577Z,98713.97
2022-08-11T09:35:05.894Z,98708.53
2022-08-11T09:37:56.618Z,98707.91
2022-08-11T09:40:31.223Z,98701.41
2022-08-11T09:43:21.492Z,98704.31
2022-08-11T09:45:55.942Z,98708.25
2022-08-11T09:48:27.762Z,98700.88
2022-08-11T09:51:01.099Z,98699.44
2022-08-11T09:53:40.503Z,98701.09
2022-08-11T09:56:33.852Z,98701.66
2022-08-11T09:59:04.542Z,98694.09
2022-08-11T10:01:41.694Z,98693.34
2022-08-11T10:04:15.566Z,98694.13
2022-08-11T10:07:05.533Z,98692.53
2022-08-11T10:09:44.105Z,98680.69
2022-08-11T10:12:24.530Z,98682.47
2022-08-11T10:15:14.547Z,98681.41
2022-08-11T10:18:03.806Z,98675.59
2022-08-11T10:20:39.096Z,98669.47
2022-08-11T10:23:33.438Z,98659.22
2022-08-11T10:26:22.668Z,98652.59
2022-08-11T10:29:12.169Z,98660.75
2022-08-11T10:32:04.297Z,98657.56
2022-08-11T10:34:36.049Z,98649.53
2022-08-11T10:37:15.052Z,98650.44
2022-08-11T10:39:45.770Z,98648.97
2022-08-11T10:42:55.294Z,98645.28
2022-08-11T10:45:40.976Z,98639.72
2022-08-11T10:48:15.245Z,98640.34
2022-08-11T10:51:07.325Z,98639.66
2022-08-11T10:53:55.338Z,98646.28
2022-08-11T10:56:42.839Z,98633.97
2022-08-11T10:59:12.272Z,98629.50
2022-08-11T11:01:46.104Z,98630.13
2022-08-11T11:04:18.623Z,98629.50
2022-08-11T11:07:00.982Z,98630.81
2022-08-11T11:09:33.425Z,98628.34
2022-08-11T11:12:27.642Z,98628.59
2022-08-11T11:15:16.151Z,98625.31
2022-08-11T11:18:01.817Z,98616.69
2022-08-11T11:20:39.317Z,98620.91
2022-08-11T11:23:20.037Z,98618.31
2022-08-11T11:26:31.124Z,98612.09
2022-08-11T11:29:49.694Z,98613.72
2022-08-11T11:32:32.316Z,98621.44
2022-08-11T11:35:27.854Z,98617.38
2022-08-11T11:38:05.022Z,98616.19
2022-08-11T11:40:37.510Z,98609.63
2022-08-11T11:43:07.115Z,98606.69
2022-08-11T11:45:36.790Z,98604.81
2022-08-11T11:48:07.460Z,98597.47
2022-08-11T11:50:39.529Z,98602.84
2022-08-11T11:53:11.752Z,98600.19
2022-08-11T11:55:43.155Z,98597.50
2022-08-11T11:58:31.313Z,98590.38
2022-08-11T12:01:20.179Z,98586.25
2022-08-11T12:03:52.976Z,98572.53
2022-08-11T12:06:27.717Z,98576.03
2022-08-11T12:09:01.730Z,98571.78
2022-08-11T12:11:51.673Z,98568.09
2022-08-11T12:14:27.002Z,98564.31
2022-08-11T12:16:58.829Z,98557.38
2022-08-11T12:19:35.808Z,98554.94
2022-08-11T12:22:24.883Z,98544.97
2022-08-11T12:25:12.501Z,98539.66
2022-08-11T12:27:43.667Z,98544.19
2022-08-11T12:30:15.407Z,98543.50
2022-08-11T12:32:45.749Z,98536.59
2022-08-11T12:35:17.907Z,98541.22
2022-08-11T12:37:50.716Z,98534.44
2022-08-11T12:41:11.714Z,98524.50
2022-08-11T12:43:56.855Z,98518.44
2022-08-11T12:46:35.745Z,98517.38
2022-08-11T12:49:30.920Z,98522.09
2022-08-11T12:52:15.049Z,98525.97
2022-08-11T12:54:57.981Z,98528.34
2022-08-11T12:57:52.679Z,98525.28
2022-08-11T13:00:42.627Z,98508.41
2022-08-11T13:03:32.419Z,98508.63
2022-08-11T13:06:05.443Z,98503.53
2022-08-11T13:08:39.669Z,98497.75
2022-08-11T13:11:56.910Z,98492.94
2022-08-11T13:14:21.343Z,98489.94
2022-08-11T13:17:15.272Z,98491.94
2022-08-11T13:19:49.596Z,98489.47
2022-08-11T13:22:21.712Z,98493.06
2022-08-11T13:24:55.258Z,98484.81
2022-08-11T13:27:26.092Z,98481.88
2022-08-11T13:30:15.834Z,98476.91
2022-08-11T13:32:48.058Z,98474.13
2022-08-11T13:35:18.968Z,98474.50
2022-08-11T13:38:18.625Z,98466.00
2022-08-11T13:40:55.277Z,98474.09
2022-08-11T13:43:26.125Z,98462.59
2022-08-11T13:46:16.624Z,98459.06
2022-08-11T13:48:47.702Z,98463.25
2022-08-11T13:51:34.792Z,98465.19
2022-08-11T13:54:09.002Z,98459.91
2022-08-11T13:56:43.599Z,98464.38
2022-08-11T13:59:15.702Z,98452.09
2022-08-11T14:01:51.442Z,98453.09
2022-08-11T14:04:45.138Z,98455.97
2022-08-11T14:07:19.953Z,98446.69
2022-08-11T14:09:56.475Z,98442.88
2022-08-11T14:12:46.168Z,98438.41
2022-08-11T14:15:20.903Z,98450.38
2022-08-11T14:17:56.374Z,98432.63
2022-08-11T14:20:47.436Z,98444.50
2022-08-11T14:23:16.949Z,98433.19
2022-08-11T14:26:02.299Z,98429.09
2022-08-11T14:28:41.658Z,98426.84
2022-08-11T14:31:15.947Z,98421.22
2022-08-11T14:33:59.799Z,98426.28
2022-08-11T14:36:39.711Z,98419.25
2022-08-11T14:39:13.180Z,98426.88
2022-08-11T14:42:12.088Z,98415.66
2022-08-11T14:45:06.017Z,98431.63
2022-08-11T14:47:37.714Z,98417.78
2022-08-11T14:50:14.031Z,98419.72
2022-08-11T14:52:51.898Z,98419.66
2022-08-11T14:55:41.019Z,98425.69
2022-08-11T14:58:12.221Z,98427.34
2022-08-11T15:00:44.247Z,98421.53
2022-08-11T15:03:15.415Z,98421.19
2022-08-11T15:05:54.316Z,98410.53
2022-08-11T15:08:48.880Z,98416.47
2022-08-11T15:11:40.180Z,98419.94
2022-08-11T15:14:12.342Z,98411.75
2022-08-11T15:17:05.735Z,98415.78
2022-08-11T15:19:40.987Z,98412.88
2022-08-11T15:22:29.253Z,98414.91
2022-08-11T15:25:01.218Z,98419.31
2022-08-11T15:27:52.325Z,98416.59
2022-08-11T15:30:41.077Z,98403.94
2022-08-11T15:33:44.935Z,98403.50
2022-08-11T15:36:33.569Z,98407.50
2022-08-11T15:39:09.500Z,98407.69
2022-08-11T15:42:15.785Z,98402.97
2022-08-11T15:45:10.006Z,98396.97
2022-08-11T15:47:46.103Z,98389.72
2022-08-11T15:50:22.050Z,98389.88
2022-08-11T15:53:00.644Z,98391.53
2022-08-11T15:55:33.750Z,98394.44
2022-08-11T15:58:27.429Z,98394.47
2022-08-11T16:01:16.198Z,98388.56
2022-08-11T16:04:12.610Z,98389.06
2022-08-11T16:06:55.725Z,98389.69
2022-08-11T16:09:46.821Z,98388.16
2022-08-11T16:12:21.620Z,98380.06
2022-08-11T16:15:15.410Z,98382.50
2022-08-11T16:17:54.440Z,98376.22
2022-08-11T16:20:27.496Z,98388.84
2022-08-11T16:23:02.858Z,98380.72
2022-08-11T16:27:07.217Z,98383.06
2022-08-11T16:28:28.815Z,98386.72
2022-08-11T16:30:59.639Z,98378.38
2022-08-11T16:33:51.078Z,98384.63
2022-08-11T16:36:38.933Z,98382.56
2022-08-11T16:39:09.612Z,98378.59
2022-08-11T16:42:01.030Z,98375.97
2022-08-11T16:44:51.512Z,98377.34
2022-08-11T16:48:02.082Z,98379.78
2022-08-11T16:50:14.610Z,98381.97
2022-08-11T16:52:46.440Z,98373.63
2022-08-11T16:55:52.097Z,98381.75
2022-08-11T16:58:25.420Z,98382.03
2022-08-11T17:00:59.031Z,98375.75
2022-08-11T17:03:52.191Z,98369.66
2022-08-11T17:06:40.220Z,98378.00
2022-08-11T17:09:29.561Z,98381.13
2022-08-11T17:12:18.765Z,98388.72
2022-08-11T17:14:53.172Z,98383.97
2022-08-11T17:17:30.071Z,98387.09
2022-08-11T17:20:40.962Z,98382.88
2022-08-11T17:23:15.303Z,98380.72
2022-08-11T17:26:03.876Z,98373.59
2022-08-11T17:28:36.343Z,98381.06
2022-08-11T17:31:22.840Z,98383.84
2022-08-11T17:34:11.428Z,98378.00
2022-08-11T17:36:45.854Z,98378.16
2022-08-11T17:39:17.244Z,98378.06
2022-08-11T17:42:04.383Z,98377.69
2022-08-11T17:44:50.018Z,98382.59
2022-08-11T17:47:39.701Z,98384.09
2022-08-11T17:50:17.252Z,98380.84
2022-08-11T17:53:07.466Z,98391.72
2022-08-11T17:55:56.015Z,98381.28
2022-08-11T17:58:46.190Z,98388.03
2022-08-11T18:01:17.171Z,98384.59
2022-08-11T18:03:53.276Z,98385.47
2022-08-11T18:06:34.035Z,98390.31
2022-08-11T18:09:28.119Z,98397.00
2022-08-11T18:12:16.255Z,98392.44
2022-08-11T18:15:07.628Z,98392.28
2022-08-11T18:17:55.773Z,98386.66
2022-08-11T18:20:43.875Z,98387.09
2022-08-11T18:23:40.365Z,98389.31
2022-08-11T18:26:40.391Z,98390.22
2022-08-11T18:29:28.199Z,98398.31
2022-08-11T18:32:21.211Z,98401.91
2022-08-11T18:35:11.150Z,98407.13
2022-08-11T18:38:07.997Z,98414.66
2022-08-11T18:40:55.620Z,98417.34
2022-08-11T18:43:46.704Z,98419.09
2022-08-11T18:46:39.228Z,98427.81
2022-08-11T18:50:00.973Z,98426.41
2022-08-11T18:52:39.181Z,98422.28
2022-08-11T18:55:33.076Z,98428.09
2022-08-11T18:58:26.268Z,98422.16
2022-08-11T19:01:20.734Z,98432.00
2022-08-11T19:04:11.214Z,98430.47
2022-08-11T19:07:12.414Z,98432.16
2022-08-11T19:10:02.067Z,98439.81
2022-08-11T19:12:54.371Z,98438.66
2022-08-11T19:15:42.526Z,98439.00
2022-08-11T19:18:37.143Z,98436.34
2022-08-11T19:21:26.308Z,98438.84
2022-08-11T19:24:18.584Z,98432.84
2022-08-11T19:27:06.952Z,98437.91
2022-08-11T19:30:11.210Z,98436.94
2022-08-11T19:33:04.291Z,98440.44
2022-08-11T19:36:04.780Z,98431.72
2022-08-11T19:38:53.101Z,98437.63
2022-08-11T19:41:57.117Z,98441.47
2022-08-11T19:44:45.845Z,98452.09
2022-08-11T19:47:38.522Z,98444.03
2022-08-11T19:50:31.104Z,98448.31
2022-08-11T19:53:30.210Z,98443.59
2022-08-11T19:56:42.419Z,98449.31
2022-08-11T19:59:32.257Z,98440.94
2022-08-11T20:02:18.980Z,98453.78
2022-08-11T20:05:08.679Z,98447.97
2022-08-11T20:07:56.379Z,98448.78
2022-08-11T20:10:46.322Z,98454.22
2022-08-11T20:13:34.827Z,98447.88
2022-08-11T20:16:33.461Z,98446.94
2022-08-11T20:19:56.619Z,98450.53
2022-08-11T20:22:35.850Z,98449.78
2022-08-11T20:25:24.715Z,98452.94
2022-08-11T20:28:14.440Z,98445.97
2022-08-11T20:31:08.007Z,98448.50
2022-08-11T20:33:55.741Z,98448.69
2022-08-11T20:36:47.600Z,98444.09
2022-08-11T20:39:43.329Z,98447.91
2022-08-11T20:42:31.905Z,98443.78
2022-08-11T20:45:23.487Z,98450.44
2022-08-11T20:48:15.374Z,98441.22
2022-08-11T20:51:06.014Z,98443.16
2022-08-11T20:53:57.599Z,98451.69
2022-08-11T20:56:51.986Z,98446.63
2022-08-11T20:59:52.686Z,98451.03
2022-08-11T21:02:50.113Z,98460.25
2022-08-11T21:06:09.624Z,98449.31
2022-08-11T21:08:49.770Z,98453.59
2022-08-11T21:11:37.409Z,98452.97
2022-08-11T21:14:29.970Z,98448.22
2022-08-11T21:17:27.392Z,98449.00
2022-08-11T21:20:23.221Z,98455.16
2022-08-11T21:23:19.983Z,98458.81
2022-08-11T21:26:15.497Z,98455.81
2022-08-11T21:29:04.296Z,98452.78
2022-08-11T21:31:52.332Z,98457.41
2022-08-11T21:34:40.396Z,98457.69
2022-08-11T21:37:31.015Z,98454.84
2022-08-11T21:40:19.480Z,98458.34
2022-08-11T21:43:08.690Z,98460.84
2022-08-11T21:45:58.775Z,98460.22
2022-08-11T21:48:46.725Z,98462.56
2022-08-11T21:51:33.191Z,98467.91
2022-08-11T21:54:22.315Z,98467.81
2022-08-11T21:57:10.419Z,98472.59
2022-08-11T22:00:03.091Z,98473.16
2022-08-11T22:02:58.520Z,98456.00
2022-08-11T22:05:47.100Z,98467.13
2022-08-11T22:08:34.085Z,98466.47
2022-08-11T22:11:32.203Z,98463.78
2022-08-11T22:14:19.274Z,98463.00
2022-08-11T22:17:05.915Z,98450.97
2022-08-11T22:19:54.605Z,98464.22
2022-08-11T22:22:51.945Z,98461.06
2022-08-11T22:25:50.823Z,98464.38
2022-08-11T22:28:40.343Z,98461.06
2022-08-11T22:31:29.433Z,98468.00
2022-08-11T22:34:16.010Z,98459.13
2022-08-11T22:37:04.426Z,98468.88
2022-08-11T22:40:01.889Z,98474.25
2022-08-11T22:42:49.924Z,98465.31
2022-08-11T22:45:38.886Z,98463.84
2022-08-11T22:48:27.868Z,98458.47
2022-08-11T22:51:16.584Z,98462.38
2022-08-11T22:54:04.655Z,98444.31
2022-08-11T22:56:52.854Z,98443.81
2022-08-11T22:59:41.075Z,98449.63
2022-08-11T23:02:30.334Z,98457.69
2022-08-11T23:05:17.929Z,98451.84
2022-08-11T23:08:05.080Z,98445.66
2022-08-11T23:10:52.908Z,98455.69
2022-08-11T23:13:40.480Z,98444.56
2022-08-11T23:16:27.563Z,98446.13
2022-08-11T23:20:07.348Z,98445.78
2022-08-11T23:22:23.434Z,98442.97
2022-08-11T23:25:24.625Z,98448.81
2022-08-11T23:28:11.667Z,98440.88
2022-08-11T23:30:59.278Z,98438.84
2022-08-11T23:33:49.152Z,98439.75
2022-08-11T23:36:47.056Z,98437.72
2022-08-11T23:39:35.986Z,98432.91
2022-08-11T23:42:24.150Z,98427.94
2022-08-11T23:45:10.789Z,98422.25
2022-08-11T23:47:58.089Z,98425.28
2022-08-11T23:50:45.469Z,98427.94
2022-08-11T23:53:33.667Z,98424.63
2022-08-11T23:56:21.870Z,98428.53
2022-08-11T23:59:09.054Z,98417.09
